sensor_id;sensor_type;location;lat;lon;timestamp;P1;durP1;ratioP1;P2;durP2;ratioP2
3718;SDS011;1875;52.492;6.860;2022-08-11T00:01:56;1852.33;;;262.13;;
3718;SDS011;1875;52.492;6.860;2022-08-11T00:04:25;1570.00;;;736.83;;
3718;SDS011;1875;52.492;6.860;2022-08-11T00:06:54;1455.53;;;727.60;;
3718;SDS011;1875;52.492;6.860;2022-08-11T00:09:29;1600.77;;;731.30;;
3718;SDS011;1875;52.492;6.860;2022-08-11T00:12:05;1562.10;;;727.00;;
3718;SDS011;1875;52.492;6.860;2022-08-11T00:14:38;1271.00;;;953.67;;
3718;SDS011;1875;52.492;6.860;2022-08-11T00:17:07;1152.43;;;948.60;;
3718;SDS011;1875;52.492;6.860;2022-08-11T00:19:38;1191.53;;;957.23;;
3718;SDS011;1875;52.492;6.860;2022-08-11T00:22:29;1488.73;;;723.83;;
3718;SDS011;1875;52.492;6.860;2022-08-11T00:24:56;1517.37;;;730.10;;
3718;SDS011;1875;52.492;6.860;2022-08-11T00:27:31;1708.43;;;441.67;;
3718;SDS011;1875;52.492;6.860;2022-08-11T00:29:59;1840.47;;;258.17;;
3718;SDS011;1875;52.492;6.860;2022-08-11T00:32:27;1145.50;;;947.10;;
3718;SDS011;1875;52.492;6.860;2022-08-11T00:34:56;1516.20;;;723.67;;
3718;SDS011;1875;52.492;6.860;2022-08-11T00:37:47;947.63;;;756.17;;
3718;SDS011;1875;52.492;6.860;2022-08-11T00:40:20;1414.87;;;725.50;;
3718;SDS011;1875;52.492;6.860;2022-08-11T00:42:53;1896.93;;;256.97;;
3718;SDS011;1875;52.492;6.860;2022-08-11T00:45:29;1540.80;;;745.40;;
3718;SDS011;1875;52.492;6.860;2022-08-11T00:48:01;1908.23;;;263.27;;
3718;SDS011;1875;52.492;6.860;2022-08-11T00:50:35;1563.93;;;130.40;;
3718;SDS011;1875;52.492;6.860;2022-08-11T00:53:15;1073.23;;;910.40;;
3718;SDS011;1875;52.492;6.860;2022-08-11T01:02:15;1614.77;;;761.07;;
3718;SDS011;1875;52.492;6.860;2022-08-11T01:08:15;1235.03;;;936.63;;
3718;SDS011;1875;52.492;6.860;2022-08-11T01:10:58;1867.13;;;460.80;;
3718;SDS011;1875;52.492;6.860;2022-08-11T01:13:42;2001.80;;;234.07;;
3718;SDS011;1875;52.492;6.860;2022-08-11T01:16:40;1754.33;;;771.40;;
3718;SDS011;1875;52.492;6.860;2022-08-11T01:19:35;1943.87;;;309.47;;
3718;SDS011;1875;52.492;6.860;2022-08-11T01:25:51;1719.87;;;779.73;;
3718;SDS011;1875;52.492;6.860;2022-08-11T01:28:45;1297.77;;;999.33;;
3718;SDS011;1875;52.492;6.860;2022-08-11T01:31:36;1375.77;;;987.77;;
3718;SDS011;1875;52.492;6.860;2022-08-11T01:40:45;1379.47;;;999.90;;
3718;SDS011;1875;52.492;6.860;2022-08-11T01:46:53;1260.20;;;999.90;;
3718;SDS011;1875;52.492;6.860;2022-08-11T01:49:24;1151.57;;;999.90;;
3718;SDS011;1875;52.492;6.860;2022-08-11T01:52:18;2206.77;;;845.43;;
3718;SDS011;1875;52.492;6.860;2022-08-11T01:55:08;791.07;;;138.17;;
3718;SDS011;1875;52.492;6.860;2022-08-11T01:57:45;1161.97;;;58.07;;
3718;SDS011;1875;52.492;6.860;2022-08-11T02:00:19;782.63;;;159.77;;
3718;SDS011;1875;52.492;6.860;2022-08-11T02:02:52;803.87;;;147.37;;
3718;SDS011;1875;52.492;6.860;2022-08-11T02:05:35;780.60;;;127.80;;
3718;SDS011;1875;52.492;6.860;2022-08-11T02:08:14;695.03;;;91.00;;
3718;SDS011;1875;52.492;6.860;2022-08-11T02:11:03;579.30;;;37.37;;
3718;SDS011;1875;52.492;6.860;2022-08-11T02:13:56;858.47;;;138.17;;
3718;SDS011;1875;52.492;6.860;2022-08-11T02:16:28;1075.47;;;344.70;;
3718;SDS011;1875;52.492;6.860;2022-08-11T02:19:04;816.07;;;160.93;;
3718;SDS011;1875;52.492;6.860;2022-08-11T02:21:58;746.77;;;84.27;;
3718;SDS011;1875;52.492;6.860;2022-08-11T02:24:46;807.07;;;131.13;;
3718;SDS011;1875;52.492;6.860;2022-08-11T02:27:32;1057.93;;;343.50;;
3718;SDS011;1875;52.492;6.860;2022-08-11T02:30:05;680.23;;;30.07;;
3718;SDS011;1875;52.492;6.860;2022-08-11T02:32:35;730.27;;;55.90;;
3718;SDS011;1875;52.492;6.860;2022-08-11T02:35:25;775.73;;;63.07;;
3718;SDS011;1875;52.492;6.860;2022-08-11T02:37:59;676.57;;;55.67;;
3718;SDS011;1875;52.492;6.860;2022-08-11T02:40:37;673.00;;;55.50;;
3718;SDS011;1875;52.492;6.860;2022-08-11T02:43:21;571.23;;;45.53;;
3718;SDS011;1875;52.492;6.860;2022-08-11T02:45:55;663.63;;;59.40;;
3718;SDS011;1875;52.492;6.860;2022-08-11T02:48:35;589.97;;;55.20;;
3718;SDS011;1875;52.492;6.860;2022-08-11T02:51:26;625.90;;;35.37;;
3718;SDS011;1875;52.492;6.860;2022-08-11T02:54:01;682.83;;;57.43;;
3718;SDS011;1875;52.492;6.860;2022-08-11T02:56:38;1628.47;;;673.43;;
3718;SDS011;1875;52.492;6.860;2022-08-11T02:59:18;612.00;;;55.60;;
3718;SDS011;1875;52.492;6.860;2022-08-11T03:02:10;1062.33;;;136.90;;
3718;SDS011;1875;52.492;6.860;2022-08-11T03:04:44;1328.77;;;992.07;;
3718;SDS011;1875;52.492;6.860;2022-08-11T03:07:22;1153.90;;;774.67;;
3718;SDS011;1875;52.492;6.860;2022-08-11T03:09:57;1505.80;;;999.90;;
3718;SDS011;1875;52.492;6.860;2022-08-11T03:12:31;1744.03;;;999.90;;
3718;SDS011;1875;52.492;6.860;2022-08-11T03:15:28;1532.40;;;999.90;;
3718;SDS011;1875;52.492;6.860;2022-08-11T03:18:17;1593.40;;;999.90;;
3718;SDS011;1875;52.492;6.860;2022-08-11T03:20:52;1572.07;;;999.90;;
3718;SDS011;1875;52.492;6.860;2022-08-11T03:23:26;1625.87;;;999.90;;
3718;SDS011;1875;52.492;6.860;2022-08-11T03:25:57;1701.47;;;999.90;;
3718;SDS011;1875;52.492;6.860;2022-08-11T03:28:30;1735.70;;;999.90;;
3718;SDS011;1875;52.492;6.860;2022-08-11T03:31:05;1676.90;;;999.90;;
3718;SDS011;1875;52.492;6.860;2022-08-11T03:33:37;1299.87;;;427.53;;
3718;SDS011;1875;52.492;6.860;2022-08-11T03:39:46;695.50;;;66.07;;
3718;SDS011;1875;52.492;6.860;2022-08-11T03:42:24;866.63;;;38.67;;
3718;SDS011;1875;52.492;6.860;2022-08-11T03:45:06;787.10;;;89.13;;
3718;SDS011;1875;52.492;6.860;2022-08-11T03:47:47;744.23;;;28.13;;
3718;SDS011;1875;52.492;6.860;2022-08-11T03:50:31;613.17;;;42.67;;
3718;SDS011;1875;52.492;6.860;2022-08-11T03:53:23;604.33;;;27.73;;
3718;SDS011;1875;52.492;6.860;2022-08-11T03:56:10;564.47;;;19.07;;
3718;SDS011;1875;52.492;6.860;2022-08-11T03:58:56;802.80;;;94.00;;
3718;SDS011;1875;52.492;6.860;2022-08-11T04:05:03;584.97;;;52.90;;
3718;SDS011;1875;52.492;6.860;2022-08-11T04:08:10;658.87;;;29.23;;
3718;SDS011;1875;52.492;6.860;2022-08-11T04:11:11;1294.53;;;56.07;;
3718;SDS011;1875;52.492;6.860;2022-08-11T04:14:00;550.20;;;21.43;;
3718;SDS011;1875;52.492;6.860;2022-08-11T04:16:53;2266.67;;;999.90;;
3718;SDS011;1875;52.492;6.860;2022-08-11T04:19:46;1199.60;;;192.53;;
3718;SDS011;1875;52.492;6.860;2022-08-11T04:22:50;1061.43;;;155.17;;
3718;SDS011;1875;52.492;6.860;2022-08-11T04:25:28;2266.67;;;999.90;;
3718;SDS011;1875;52.492;6.860;2022-08-11T04:28:33;768.13;;;117.77;;
3718;SDS011;1875;52.492;6.860;2022-08-11T04:31:21;969.90;;;104.13;;
3718;SDS011;1875;52.492;6.860;2022-08-11T04:34:29;1709.87;;;705.87;;
3718;SDS011;1875;52.492;6.860;2022-08-11T04:37:14;815.57;;;116.40;;
3718;SDS011;1875;52.492;6.860;2022-08-11T04:40:08;1086.63;;;195.70;;
3718;SDS011;1875;52.492;6.860;2022-08-11T04:46:00;596.50;;;34.03;;
3718;SDS011;1875;52.492;6.860;2022-08-11T04:48:46;778.43;;;63.40;;
3718;SDS011;1875;52.492;6.860;2022-08-11T04:51:43;645.37;;;58.60;;
3718;SDS011;1875;52.492;6.860;2022-08-11T04:54:40;590.77;;;25.97;;
3718;SDS011;1875;52.492;6.860;2022-08-11T04:57:57;667.30;;;25.80;;
3718;SDS011;1875;52.492;6.860;2022-08-11T05:00:59;525.80;;;20.27;;
3718;SDS011;1875;52.492;6.860;2022-08-11T05:04:09;595.27;;;28.87;;
3718;SDS011;1875;52.492;6.860;2022-08-11T05:10:12;576.70;;;22.37;;
3718;SDS011;1875;52.492;6.860;2022-08-11T05:12:45;2266.67;;;999.90;;
3718;SDS011;1875;52.492;6.860;2022-08-11T05:15:19;2266.67;;;999.90;;
3718;SDS011;1875;52.492;6.860;2022-08-11T05:18:13;771.20;;;60.17;;
3718;SDS011;1875;52.492;6.860;2022-08-11T05:21:02;703.40;;;85.30;;
3718;SDS011;1875;52.492;6.860;2022-08-11T05:23:52;774.00;;;142.57;;
3718;SDS011;1875;52.492;6.860;2022-08-11T05:26:43;2266.67;;;999.90;;
3718;SDS011;1875;52.492;6.860;2022-08-11T05:29:42;2266.67;;;999.90;;
3718;SDS011;1875;52.492;6.860;2022-08-11T05:32:33;2266.67;;;999.90;;
3718;SDS011;1875;52.492;6.860;2022-08-11T05:35:30;2266.67;;;999.90;;
3718;SDS011;1875;52.492;6.860;2022-08-11T05:38:22;830.97;;;147.87;;
3718;SDS011;1875;52.492;6.860;2022-08-11T05:41:09;2266.67;;;999.90;;
3718;SDS011;1875;52.492;6.860;2022-08-11T05:43:55;2266.67;;;999.90;;
3718;SDS011;1875;52.492;6.860;2022-08-11T05:46:48;1134.60;;;203.50;;
3718;SDS011;1875;52.492;6.860;2022-08-11T05:49:34;2266.67;;;999.90;;
3718;SDS011;1875;52.492;6.860;2022-08-11T05:52:23;1699.83;;;463.57;;
3718;SDS011;1875;52.492;6.860;2022-08-11T05:55:12;1880.97;;;529.57;;
3718;SDS011;1875;52.492;6.860;2022-08-11T05:57:59;2266.67;;;999.90;;
3718;SDS011;1875;52.492;6.860;2022-08-11T06:00:29;2266.67;;;999.90;;
3718;SDS011;1875;52.492;6.860;2022-08-11T06:02:58;2266.67;;;999.90;;
3718;SDS011;1875;52.492;6.860;2022-08-11T06:05:32;2266.67;;;999.90;;
3718;SDS011;1875;52.492;6.860;2022-08-11T06:08:08;2200.00;;;831.67;;
3718;SDS011;1875;52.492;6.860;2022-08-11T06:10:38;2266.67;;;999.90;;
3718;SDS011;1875;52.492;6.860;2022-08-11T06:13:07;2266.67;;;999.90;;
3718;SDS011;1875;52.492;6.860;2022-08-11T06:15:42;2266.67;;;906.87;;
3718;SDS011;1875;52.492;6.860;2022-08-11T06:18:12;2266.67;;;909.67;;
3718;SDS011;1875;52.492;6.860;2022-08-11T06:20:44;2266.67;;;948.87;;
3718;SDS011;1875;52.492;6.860;2022-08-11T06:23:13;2229.30;;;958.37;;
3718;SDS011;1875;52.492;6.860;2022-08-11T06:25:43;2266.67;;;967.70;;
3718;SDS011;1875;52.492;6.860;2022-08-11T06:28:11;2264.50;;;937.53;;
3718;SDS011;1875;52.492;6.860;2022-08-11T06:30:45;2266.67;;;966.23;;
3718;SDS011;1875;52.492;6.860;2022-08-11T06:33:16;2266.67;;;913.03;;
3718;SDS011;1875;52.492;6.860;2022-08-11T06:35:47;2266.37;;;969.37;;
3718;SDS011;1875;52.492;6.860;2022-08-11T06:38:24;2252.40;;;908.07;;
3718;SDS011;1875;52.492;6.860;2022-08-11T06:41:00;2266.67;;;964.93;;
3718;SDS011;1875;52.492;6.860;2022-08-11T06:43:50;2266.67;;;977.33;;
3718;SDS011;1875;52.492;6.860;2022-08-11T06:46:24;2266.67;;;991.60;;
3718;SDS011;1875;52.492;6.860;2022-08-11T06:48:55;2266.67;;;990.30;;
3718;SDS011;1875;52.492;6.860;2022-08-11T06:51:23;2266.67;;;960.93;;
3718;SDS011;1875;52.492;6.860;2022-08-11T06:53:50;2266.67;;;999.90;;
3718;SDS011;1875;52.492;6.860;2022-08-11T06:56:30;2250.40;;;931.10;;
3718;SDS011;1875;52.492;6.860;2022-08-11T06:59:37;2061.50;;;927.97;;
3718;SDS011;1875;52.492;6.860;2022-08-11T07:02:25;2266.67;;;809.07;;
3718;SDS011;1875;52.492;6.860;2022-08-11T07:05:01;2266.67;;;999.90;;
3718;SDS011;1875;52.492;6.860;2022-08-11T07:07:47;2266.67;;;999.90;;
3718;SDS011;1875;52.492;6.860;2022-08-11T07:11:06;2266.67;;;999.90;;
3718;SDS011;1875;52.492;6.860;2022-08-11T07:14:02;2266.67;;;999.90;;
3718;SDS011;1875;52.492;6.860;2022-08-11T07:16:48;2266.67;;;999.90;;
3718;SDS011;1875;52.492;6.860;2022-08-11T07:19:19;2266.67;;;999.90;;
3718;SDS011;1875;52.492;6.860;2022-08-11T07:22:08;2266.67;;;999.90;;
3718;SDS011;1875;52.492;6.860;2022-08-11T07:24:54;1713.27;;;400.60;;
3718;SDS011;1875;52.492;6.860;2022-08-11T07:27:42;1195.87;;;321.70;;
3718;SDS011;1875;52.492;6.860;2022-08-11T07:30:28;1877.03;;;328.83;;
3718;SDS011;1875;52.492;6.860;2022-08-11T07:32:58;1879.73;;;348.23;;
3718;SDS011;1875;52.492;6.860;2022-08-11T07:35:29;1894.50;;;297.80;;
3718;SDS011;1875;52.492;6.860;2022-08-11T07:38:00;1697.97;;;545.97;;
3718;SDS011;1875;52.492;6.860;2022-08-11T07:40:33;1654.90;;;220.77;;
3718;SDS011;1875;52.492;6.860;2022-08-11T07:43:02;1895.53;;;331.77;;
3718;SDS011;1875;52.492;6.860;2022-08-11T07:45:30;1580.20;;;216.23;;
3718;SDS011;1875;52.492;6.860;2022-08-11T07:48:16;1513.40;;;187.43;;
3718;SDS011;1875;52.492;6.860;2022-08-11T07:51:01;1330.37;;;171.60;;
3718;SDS011;1875;52.492;6.860;2022-08-11T07:53:48;1835.27;;;331.30;;
3718;SDS011;1875;52.492;6.860;2022-08-11T07:56:37;1933.73;;;284.77;;
3718;SDS011;1875;52.492;6.860;2022-08-11T07:59:25;1643.80;;;231.37;;
3718;SDS011;1875;52.492;6.860;2022-08-11T08:02:30;1742.00;;;274.93;;
3718;SDS011;1875;52.492;6.860;2022-08-11T08:05:15;1885.73;;;423.30;;
3718;SDS011;1875;52.492;6.860;2022-08-11T08:08:01;1879.63;;;417.43;;
3718;SDS011;1875;52.492;6.860;2022-08-11T08:10:47;1846.13;;;358.73;;
3718;SDS011;1875;52.492;6.860;2022-08-11T08:13:33;1725.23;;;331.27;;
3718;SDS011;1875;52.492;6.860;2022-08-11T08:16:18;2266.67;;;999.90;;
3718;SDS011;1875;52.492;6.860;2022-08-11T08:19:04;2266.67;;;999.90;;
3718;SDS011;1875;52.492;6.860;2022-08-11T08:21:32;1838.57;;;722.30;;
3718;SDS011;1875;52.492;6.860;2022-08-11T08:23:59;2266.67;;;999.90;;
3718;SDS011;1875;52.492;6.860;2022-08-11T08:26:28;2266.67;;;999.90;;
3718;SDS011;1875;52.492;6.860;2022-08-11T08:29:17;1869.40;;;727.03;;
3718;SDS011;1875;52.492;6.860;2022-08-11T08:32:04;2266.67;;;999.90;;
3718;SDS011;1875;52.492;6.860;2022-08-11T08:34:32;2266.67;;;999.90;;
3718;SDS011;1875;52.492;6.860;2022-08-11T08:36:59;2266.67;;;999.90;;
3718;SDS011;1875;52.492;6.860;2022-08-11T08:39:41;2266.67;;;999.90;;
3718;SDS011;1875;52.492;6.860;2022-08-11T08:42:16;2266.67;;;999.90;;
3718;SDS011;1875;52.492;6.860;2022-08-11T08:44:46;2266.67;;;999.90;;
3718;SDS011;1875;52.492;6.860;2022-08-11T08:47:19;2266.67;;;999.90;;
3718;SDS011;1875;52.492;6.860;2022-08-11T08:50:08;2266.67;;;999.90;;
3718;SDS011;1875;52.492;6.860;2022-08-11T08:52:44;2266.67;;;999.90;;
3718;SDS011;1875;52.492;6.860;2022-08-11T08:55:16;2266.67;;;999.90;;
3718;SDS011;1875;52.492;6.860;2022-08-11T08:57:46;2021.40;;;675.03;;
3718;SDS011;1875;52.492;6.860;2022-08-11T09:00:15;2266.67;;;999.90;;
3718;SDS011;1875;52.492;6.860;2022-08-11T09:02:48;2266.67;;;999.90;;
3718;SDS011;1875;52.492;6.860;2022-08-11T09:05:17;2266.67;;;999.90;;
3718;SDS011;1875;52.492;6.860;2022-08-11T09:07:46;2266.67;;;999.90;;
3718;SDS011;1875;52.492;6.860;2022-08-11T09:10:17;2266.67;;;999.90;;
3718;SDS011;1875;52.492;6.860;2022-08-11T09:12:47;2266.67;;;999.90;;
3718;SDS011;1875;52.492;6.860;2022-08-11T09:15:16;2266.67;;;999.90;;
3718;SDS011;1875;52.492;6.860;2022-08-11T09:17:46;2266.67;;;999.90;;
3718;SDS011;1875;52.492;6.860;2022-08-11T09:20:16;2266.67;;;999.90;;
3718;SDS011;1875;52.492;6.860;2022-08-11T09:22:45;2266.67;;;999.90;;
3718;SDS011;1875;52.492;6.860;2022-08-11T09:25:52;2266.67;;;999.90;;
3718;SDS011;1875;52.492;6.860;2022-08-11T09:28:41;2266.67;;;999.90;;
3718;SDS011;1875;52.492;6.860;2022-08-11T09:31:10;2266.67;;;999.90;;
3718;SDS011;1875;52.492;6.860;2022-08-11T09:33:38;2266.67;;;999.90;;
3718;SDS011;1875;52.492;6.860;2022-08-11T09:36:08;2266.67;;;999.90;;
3718;SDS011;1875;52.492;6.860;2022-08-11T09:38:55;2266.67;;;999.90;;
3718;SDS011;1875;52.492;6.860;2022-08-11T09:41:40;1876.93;;;761.43;;
3718;SDS011;1875;52.492;6.860;2022-08-11T09:44:32;2266.67;;;999.90;;
3718;SDS011;1875;52.492;6.860;2022-08-11T09:47:18;2008.33;;;715.90;;
3718;SDS011;1875;52.492;6.860;2022-08-11T09:49:50;2266.67;;;999.90;;
3718;SDS011;1875;52.492;6.860;2022-08-11T09:52:18;2266.67;;;999.90;;
3718;SDS011;1875;52.492;6.860;2022-08-11T09:54:47;2266.67;;;999.90;;
3718;SDS011;1875;52.492;6.860;2022-08-11T09:57:17;2266.67;;;999.90;;
3718;SDS011;1875;52.492;6.860;2022-08-11T10:00:06;2266.67;;;999.90;;
3718;SDS011;1875;52.492;6.860;2022-08-11T10:02:40;2266.67;;;999.90;;
3718;SDS011;1875;52.492;6.860;2022-08-11T10:05:10;2266.67;;;999.90;;
3718;SDS011;1875;52.492;6.860;2022-08-11T10:07:58;2266.67;;;999.90;;
3718;SDS011;1875;52.492;6.860;2022-08-11T10:10:26;2266.67;;;999.90;;
3718;SDS011;1875;52.492;6.860;2022-08-11T10:12:57;2266.67;;;999.90;;
3718;SDS011;1875;52.492;6.860;2022-08-11T10:15:28;2266.67;;;999.90;;
3718;SDS011;1875;52.492;6.860;2022-08-11T10:18:05;2266.67;;;999.90;;
3718;SDS011;1875;52.492;6.860;2022-08-11T10:20:52;2266.67;;;999.90;;
3718;SDS011;1875;52.492;6.860;2022-08-11T10:23:23;2266.67;;;999.90;;
3718;SDS011;1875;52.492;6.860;2022-08-11T10:26:29;2266.67;;;999.90;;
3718;SDS011;1875;52.492;6.860;2022-08-11T10:29:14;2266.67;;;999.90;;
3718;SDS011;1875;52.492;6.860;2022-08-11T10:32:10;2146.57;;;808.23;;
3718;SDS011;1875;52.492;6.860;2022-08-11T10:35:03;2266.67;;;999.90;;
3718;SDS011;1875;52.492;6.860;2022-08-11T10:37:35;2266.67;;;999.90;;
3718;SDS011;1875;52.492;6.860;2022-08-11T10:40:22;2266.67;;;999.90;;
3718;SDS011;1875;52.492;6.860;2022-08-11T10:42:55;2266.67;;;999.90;;
3718;SDS011;1875;52.492;6.860;2022-08-11T10:45:33;1972.50;;;796.53;;
3718;SDS011;1875;52.492;6.860;2022-08-11T10:48:21;2266.67;;;999.90;;
3718;SDS011;1875;52.492;6.860;2022-08-11T10:50:50;2266.67;;;999.90;;
3718;SDS011;1875;52.492;6.860;2022-08-11T10:53:37;2266.67;;;999.90;;
3718;SDS011;1875;52.492;6.860;2022-08-11T10:56:23;2266.67;;;999.90;;
3718;SDS011;1875;52.492;6.860;2022-08-11T10:59:08;2266.67;;;999.90;;
3718;SDS011;1875;52.492;6.860;2022-08-11T11:01:37;2266.67;;;999.90;;
3718;SDS011;1875;52.492;6.860;2022-08-11T11:04:11;2266.67;;;999.90;;
3718;SDS011;1875;52.492;6.860;2022-08-11T11:06:45;2266.67;;;999.90;;
3718;SDS011;1875;52.492;6.860;2022-08-11T11:09:17;2235.50;;;821.00;;
3718;SDS011;1875;52.492;6.860;2022-08-11T11:11:49;2266.67;;;999.90;;
3718;SDS011;1875;52.492;6.860;2022-08-11T11:14:37;2266.67;;;999.90;;
3718;SDS011;1875;52.492;6.860;2022-08-11T11:17:26;2011.63;;;808.43;;
3718;SDS011;1875;52.492;6.860;2022-08-11T11:20:17;2266.67;;;999.90;;
3718;SDS011;1875;52.492;6.860;2022-08-11T11:23:04;2266.67;;;999.90;;
3718;SDS011;1875;52.492;6.860;2022-08-11T11:25:42;2266.67;;;999.90;;
3718;SDS011;1875;52.492;6.860;2022-08-11T11:28:34;2266.67;;;999.90;;
3718;SDS011;1875;52.492;6.860;2022-08-11T11:31:10;2266.67;;;999.90;;
3718;SDS011;1875;52.492;6.860;2022-08-11T11:33:57;2266.67;;;999.90;;
3718;SDS011;1875;52.492;6.860;2022-08-11T11:36:43;2266.67;;;999.90;;
3718;SDS011;1875;52.492;6.860;2022-08-11T11:39:12;2266.67;;;999.90;;
3718;SDS011;1875;52.492;6.860;2022-08-11T11:41:43;2266.67;;;999.90;;
3718;SDS011;1875;52.492;6.860;2022-08-11T11:44:11;1991.30;;;790.10;;
3718;SDS011;1875;52.492;6.860;2022-08-11T11:46:39;2020.97;;;788.10;;
3718;SDS011;1875;52.492;6.860;2022-08-11T11:49:10;2026.37;;;806.73;;
3718;SDS011;1875;52.492;6.860;2022-08-11T11:51:43;2039.77;;;807.57;;
3718;SDS011;1875;52.492;6.860;2022-08-11T11:54:15;2015.73;;;806.87;;
3718;SDS011;1875;52.492;6.860;2022-08-11T11:56:44;2025.17;;;798.70;;
3718;SDS011;1875;52.492;6.860;2022-08-11T11:59:12;2053.60;;;807.27;;
3718;SDS011;1875;52.492;6.860;2022-08-11T12:01:58;2023.90;;;807.47;;
3718;SDS011;1875;52.492;6.860;2022-08-11T12:04:37;2009.67;;;805.57;;
3718;SDS011;1875;52.492;6.860;2022-08-11T12:07:09;1985.23;;;806.67;;
3718;SDS011;1875;52.492;6.860;2022-08-11T12:09:55;2043.30;;;806.83;;
3718;SDS011;1875;52.492;6.860;2022-08-11T12:12:23;2060.67;;;807.57;;
3718;SDS011;1875;52.492;6.860;2022-08-11T12:15:09;2033.37;;;805.60;;
3718;SDS011;1875;52.492;6.860;2022-08-11T12:17:37;2093.90;;;816.63;;
3718;SDS011;1875;52.492;6.860;2022-08-11T12:20:06;2015.07;;;806.40;;
3718;SDS011;1875;52.492;6.860;2022-08-11T12:22:56;2266.67;;;983.23;;
3718;SDS011;1875;52.492;6.860;2022-08-11T12:25:42;2144.90;;;819.27;;
3718;SDS011;1875;52.492;6.860;2022-08-11T12:28:48;2266.67;;;999.90;;
3718;SDS011;1875;52.492;6.860;2022-08-11T12:31:16;1980.50;;;802.17;;
3718;SDS011;1875;52.492;6.860;2022-08-11T12:33:47;2037.17;;;807.70;;
3718;SDS011;1875;52.492;6.860;2022-08-11T12:36:15;2019.73;;;806.87;;
3718;SDS011;1875;52.492;6.860;2022-08-11T12:38:46;2002.53;;;809.30;;
3718;SDS011;1875;52.492;6.860;2022-08-11T12:41:17;2019.07;;;806.67;;
3718;SDS011;1875;52.492;6.860;2022-08-11T12:44:03;2132.17;;;809.23;;
3718;SDS011;1875;52.492;6.860;2022-08-11T12:46:50;2101.43;;;809.67;;
3718;SDS011;1875;52.492;6.860;2022-08-11T12:49:18;2266.67;;;980.77;;
3718;SDS011;1875;52.492;6.860;2022-08-11T12:52:11;2000.10;;;806.23;;
3718;SDS011;1875;52.492;6.860;2022-08-11T12:54:49;1843.47;;;549.80;;
3718;SDS011;1875;52.492;6.860;2022-08-11T12:57:24;2266.67;;;999.90;;
3718;SDS011;1875;52.492;6.860;2022-08-11T13:00:15;2066.00;;;806.40;;
3718;SDS011;1875;52.492;6.860;2022-08-11T13:03:01;2266.67;;;991.97;;
3718;SDS011;1875;52.492;6.860;2022-08-11T13:05:47;2016.83;;;804.27;;
3718;SDS011;1875;52.492;6.860;2022-08-11T13:08:18;1886.10;;;759.57;;
3718;SDS011;1875;52.492;6.860;2022-08-11T13:10:50;1870.57;;;741.50;;
3718;SDS011;1875;52.492;6.860;2022-08-11T13:13:36;1841.97;;;732.67;;
3718;SDS011;1875;52.492;6.860;2022-08-11T13:16:22;1889.50;;;732.50;;
3718;SDS011;1875;52.492;6.860;2022-08-11T13:18:50;1893.57;;;753.23;;
3718;SDS011;1875;52.492;6.860;2022-08-11T13:21:19;1121.97;;;175.90;;
3718;SDS011;1875;52.492;6.860;2022-08-11T13:23:47;1871.07;;;733.93;;
3718;SDS011;1875;52.492;6.860;2022-08-11T13:26:30;1885.20;;;762.63;;
3718;SDS011;1875;52.492;6.860;2022-08-11T13:29:14;1887.03;;;718.40;;
3718;SDS011;1875;52.492;6.860;2022-08-11T13:31:43;1832.37;;;727.97;;
3718;SDS011;1875;52.492;6.860;2022-08-11T13:34:12;1682.77;;;544.93;;
3718;SDS011;1875;52.492;6.860;2022-08-11T13:36:42;1555.90;;;492.60;;
3718;SDS011;1875;52.492;6.860;2022-08-11T13:39:11;1592.33;;;498.73;;
3718;SDS011;1875;52.492;6.860;2022-08-11T13:41:41;1567.83;;;495.77;;
3718;SDS011;1875;52.492;6.860;2022-08-11T13:44:10;1608.73;;;492.47;;
3718;SDS011;1875;52.492;6.860;2022-08-11T13:46:42;1479.33;;;490.27;;
3718;SDS011;1875;52.492;6.860;2022-08-11T13:49:10;1551.57;;;493.77;;
3718;SDS011;1875;52.492;6.860;2022-08-11T13:51:41;1858.67;;;734.10;;
3718;SDS011;1875;52.492;6.860;2022-08-11T13:54:10;1823.23;;;734.37;;
3718;SDS011;1875;52.492;6.860;2022-08-11T13:56:41;1833.53;;;733.23;;
3718;SDS011;1875;52.492;6.860;2022-08-11T13:59:10;1898.57;;;754.67;;
3718;SDS011;1875;52.492;6.860;2022-08-11T14:01:45;1823.70;;;724.50;;
3718;SDS011;1875;52.492;6.860;2022-08-11T14:04:35;1809.73;;;730.70;;
3718;SDS011;1875;52.492;6.860;2022-08-11T14:07:06;1787.47;;;733.43;;
3718;SDS011;1875;52.492;6.860;2022-08-11T14:09:36;1890.77;;;736.70;;
3718;SDS011;1875;52.492;6.860;2022-08-11T14:12:08;1895.37;;;754.00;;
3718;SDS011;1875;52.492;6.860;2022-08-11T14:14:57;1796.50;;;702.10;;
3718;SDS011;1875;52.492;6.860;2022-08-11T14:17:33;1894.47;;;762.63;;
3718;SDS011;1875;52.492;6.860;2022-08-11T14:20:15;1911.37;;;764.13;;
3718;SDS011;1875;52.492;6.860;2022-08-11T14:23:04;1896.93;;;746.77;;
3718;SDS011;1875;52.492;6.860;2022-08-11T14:25:30;1731.10;;;682.80;;
3718;SDS011;1875;52.492;6.860;2022-08-11T14:28:19;1883.20;;;757.40;;
3718;SDS011;1875;52.492;6.860;2022-08-11T14:31:00;1915.40;;;761.80;;
3718;SDS011;1875;52.492;6.860;2022-08-11T14:33:30;1822.63;;;740.20;;
3718;SDS011;1875;52.492;6.860;2022-08-11T14:36:19;1976.33;;;765.67;;
3718;SDS011;1875;52.492;6.860;2022-08-11T14:38:48;1849.77;;;722.47;;
3718;SDS011;1875;52.492;6.860;2022-08-11T14:41:16;1899.03;;;725.87;;
3718;SDS011;1875;52.492;6.860;2022-08-11T14:44:04;1929.53;;;742.27;;
3718;SDS011;1875;52.492;6.860;2022-08-11T14:46:50;1911.47;;;738.93;;
3718;SDS011;1875;52.492;6.860;2022-08-11T14:49:50;1973.07;;;765.70;;
3718;SDS011;1875;52.492;6.860;2022-08-11T14:52:35;1836.93;;;713.13;;
3718;SDS011;1875;52.492;6.860;2022-08-11T14:55:04;1962.47;;;765.60;;
3718;SDS011;1875;52.492;6.860;2022-08-11T14:57:50;1913.17;;;764.33;;
3718;SDS011;1875;52.492;6.860;2022-08-11T15:00:31;1903.03;;;750.97;;
3718;SDS011;1875;52.492;6.860;2022-08-11T15:03:00;1824.10;;;728.17;;
3718;SDS011;1875;52.492;6.860;2022-08-11T15:05:40;1926.73;;;747.00;;
3718;SDS011;1875;52.492;6.860;2022-08-11T15:08:24;1924.40;;;734.53;;
3718;SDS011;1875;52.492;6.860;2022-08-11T15:11:07;1924.90;;;749.13;;
3718;SDS011;1875;52.492;6.860;2022-08-11T15:13:57;1933.10;;;773.13;;
3718;SDS011;1875;52.492;6.860;2022-08-11T15:16:27;1803.63;;;682.83;;
3718;SDS011;1875;52.492;6.860;2022-08-11T15:19:12;1895.40;;;748.97;;
3718;SDS011;1875;52.492;6.860;2022-08-11T15:21:41;1894.87;;;748.63;;
3718;SDS011;1875;52.492;6.860;2022-08-11T15:24:27;1930.43;;;755.10;;
3718;SDS011;1875;52.492;6.860;2022-08-11T15:26:56;1905.87;;;763.50;;
3718;SDS011;1875;52.492;6.860;2022-08-11T15:29:42;1637.57;;;325.73;;
3718;SDS011;1875;52.492;6.860;2022-08-11T15:32:29;1906.00;;;757.77;;
3718;SDS011;1875;52.492;6.860;2022-08-11T15:35:15;1989.17;;;748.63;;
3718;SDS011;1875;52.492;6.860;2022-08-11T15:38:05;1862.33;;;729.37;;
3718;SDS011;1875;52.492;6.860;2022-08-11T15:40:34;1975.43;;;762.03;;
3718;SDS011;1875;52.492;6.860;2022-08-11T15:43:27;1967.20;;;749.43;;
3718;SDS011;1875;52.492;6.860;2022-08-11T15:46:15;1889.93;;;761.90;;
3718;SDS011;1875;52.492;6.860;2022-08-11T15:48:46;2030.33;;;741.80;;
3718;SDS011;1875;52.492;6.860;2022-08-11T15:51:16;1906.30;;;743.10;;
3718;SDS011;1875;52.492;6.860;2022-08-11T15:53:51;1899.43;;;747.90;;
3718;SDS011;1875;52.492;6.860;2022-08-11T15:56:22;1940.93;;;738.30;;
3718;SDS011;1875;52.492;6.860;2022-08-11T15:58:52;1940.70;;;733.47;;
3718;SDS011;1875;52.492;6.860;2022-08-11T16:01:57;1924.17;;;749.50;;